sensor_id;sensor_type;location;lat;lon;timestamp;pressure;altitude;pressure_sealevel;temperature;humidity
46127;BME280;31859;55.030;-1.550;2022-09-09T00:01:49;99553.63;;;15.14;100.00
46127;BME280;31859;55.030;-1.550;2022-09-09T00:04:25;99556.44;;;14.86;100.00
46127;BME280;31859;55.030;-1.550;2022-09-09T00:07:00;99560.74;;;14.68;100.00
46127;BME280;31859;55.030;-1.550;2022-09-09T00:09:30;99559.53;;;15.13;100.00
46127;BME280;31859;55.030;-1.550;2022-09-09T00:12:02;99560.68;;;14.71;100.00
46127;BME280;31859;55.030;-1.550;2022-09-09T00:14:39;99560.31;;;14.76;100.00
46127;BME280;31859;55.030;-1.550;2022-09-09T00:17:14;99565.65;;;14.59;100.00
46127;BME280;31859;55.030;-1.550;2022-09-09T00:19:49;99565.32;;;14.42;100.00
46127;BME280;31859;55.030;-1.550;2022-09-09T00:22:21;99568.53;;;14.57;100.00
46127;BME280;31859;55.030;-1.550;2022-09-09T00:24:52;99569.61;;;14.44;100.00
46127;BME280;31859;55.030;-1.550;2022-09-09T00:27:26;99570.42;;;14.44;100.00
46127;BME280;31859;55.030;-1.550;2022-09-09T00:29:58;99573.80;;;14.40;100.00
46127;BME280;31859;55.030;-1.550;2022-09-09T00:32:30;99577.55;;;14.23;100.00
46127;BME280;31859;55.030;-1.550;2022-09-09T00:35:02;99577.12;;;14.38;100.00
46127;BME280;31859;55.030;-1.550;2022-09-09T00:37:31;99579.89;;;14.31;100.00
46127;BME280;31859;55.030;-1.550;2022-09-09T00:40:02;99580.59;;;14.58;100.00
46127;BME280;31859;55.030;-1.550;2022-09-09T00:42:38;99584.86;;;14.10;100.00
46127;BME280;31859;55.030;-1.550;2022-09-09T00:45:25;99589.87;;;13.64;100.00
46127;BME280;31859;55.030;-1.550;2022-09-09T00:48:01;99595.82;;;13.09;100.00
46127;BME280;31859;55.030;-1.550;2022-09-09T00:50:39;99598.60;;;13.34;100.00
46127;BME280;31859;55.030;-1.550;2022-09-09T00:53:21;99601.90;;;13.17;100.00
46127;BME280;31859;55.030;-1.550;2022-09-09T00:56:02;99597.43;;;13.63;100.00
46127;BME280;31859;55.030;-1.550;2022-09-09T00:58:33;99590.31;;;13.61;100.00
46127;BME280;31859;55.030;-1.550;2022-09-09T01:01:05;99589.20;;;13.58;100.00
46127;BME280;31859;55.030;-1.550;2022-09-09T01:03:35;99588.01;;;13.44;100.00
46127;BME280;31859;55.030;-1.550;2022-09-09T01:06:16;99593.00;;;13.13;100.00
46127;BME280;31859;55.030;-1.550;2022-09-09T01:09:00;99600.78;;;12.69;100.00
46127;BME280;31859;55.030;-1.550;2022-09-09T01:11:36;99608.84;;;12.25;100.00
46127;BME280;31859;55.030;-1.550;2022-09-09T01:14:16;99614.55;;;12.49;100.00
46127;BME280;31859;55.030;-1.550;2022-09-09T01:16:47;99619.07;;;12.79;100.00
46127;BME280;31859;55.030;-1.550;2022-09-09T01:19:22;99617.96;;;12.83;100.00
46127;BME280;31859;55.030;-1.550;2022-09-09T01:21:59;99614.80;;;12.94;100.00
46127;BME280;31859;55.030;-1.550;2022-09-09T01:24:34;99607.54;;;13.32;100.00
46127;BME280;31859;55.030;-1.550;2022-09-09T01:27:04;99605.08;;;13.47;100.00
46127;BME280;31859;55.030;-1.550;2022-09-09T01:29:33;99598.12;;;13.65;100.00
46127;BME280;31859;55.030;-1.550;2022-09-09T01:32:02;99600.86;;;13.52;100.00
46127;BME280;31859;55.030;-1.550;2022-09-09T01:34:33;99598.63;;;13.32;100.00
46127;BME280;31859;55.030;-1.550;2022-09-09T01:37:03;99594.19;;;13.58;100.00
46127;BME280;31859;55.030;-1.550;2022-09-09T01:39:33;99596.33;;;13.56;100.00
46127;BME280;31859;55.030;-1.550;2022-09-09T01:42:02;99596.84;;;13.61;100.00
46127;BME280;31859;55.030;-1.550;2022-09-09T01:44:31;99587.93;;;13.69;100.00
46127;BME280;31859;55.030;-1.550;2022-09-09T01:46:59;99577.26;;;13.87;100.00
46127;BME280;31859;55.030;-1.550;2022-09-09T01:49:27;99576.51;;;14.02;100.00
46127;BME280;31859;55.030;-1.550;2022-09-09T01:51:55;99573.93;;;13.97;100.00
46127;BME280;31859;55.030;-1.550;2022-09-09T01:54:27;99566.07;;;14.10;100.00
46127;BME280;31859;55.030;-1.550;2022-09-09T01:57:09;99562.87;;;14.36;100.00
46127;BME280;31859;55.030;-1.550;2022-09-09T01:59:48;99558.58;;;14.24;100.00
46127;BME280;31859;55.030;-1.550;2022-09-09T02:02:21;99561.89;;;13.49;100.00
46127;BME280;31859;55.030;-1.550;2022-09-09T02:04:56;99574.31;;;13.07;100.00
46127;BME280;31859;55.030;-1.550;2022-09-09T02:07:35;99589.98;;;12.92;100.00
46127;BME280;31859;55.030;-1.550;2022-09-09T02:10:10;99595.26;;;12.88;100.00
46127;BME280;31859;55.030;-1.550;2022-09-09T02:12:42;99606.80;;;12.87;100.00
46127;BME280;31859;55.030;-1.550;2022-09-09T02:15:17;99609.04;;;13.08;100.00
46127;BME280;31859;55.030;-1.550;2022-09-09T02:17:48;99628.23;;;12.34;100.00
46127;BME280;31859;55.030;-1.550;2022-09-09T02:20:18;99636.60;;;12.25;100.00
46127;BME280;31859;55.030;-1.550;2022-09-09T02:22:50;99640.66;;;12.15;100.00
46127;BME280;31859;55.030;-1.550;2022-09-09T02:25:20;99638.81;;;12.30;100.00
46127;BME280;31859;55.030;-1.550;2022-09-09T02:27:50;99648.04;;;12.43;100.00
46127;BME280;31859;55.030;-1.550;2022-09-09T02:30:18;99647.08;;;12.64;100.00
46127;BME280;31859;55.030;-1.550;2022-09-09T02:32:48;99652.49;;;12.15;100.00
46127;BME280;31859;55.030;-1.550;2022-09-09T02:35:21;99652.38;;;12.02;100.00
46127;BME280;31859;55.030;-1.550;2022-09-09T02:37:52;99651.74;;;12.26;100.00
46127;BME280;31859;55.030;-1.550;2022-09-09T02:40:20;99647.36;;;12.03;100.00
46127;BME280;31859;55.030;-1.550;2022-09-09T02:42:49;99652.45;;;11.78;100.00
46127;BME280;31859;55.030;-1.550;2022-09-09T02:45:19;99653.74;;;11.43;100.00
46127;BME280;31859;55.030;-1.550;2022-09-09T02:47:51;99655.53;;;11.30;100.00
46127;BME280;31859;55.030;-1.550;2022-09-09T02:50:25;99661.93;;;11.17;100.00
46127;BME280;31859;55.030;-1.550;2022-09-09T02:53:03;99664.43;;;10.96;100.00
46127;BME280;31859;55.030;-1.550;2022-09-09T02:55:38;99672.07;;;11.39;100.00
46127;BME280;31859;55.030;-1.550;2022-09-09T02:58:09;99669.25;;;11.62;100.00
46127;BME280;31859;55.030;-1.550;2022-09-09T03:00:38;99659.17;;;11.50;100.00
46127;BME280;31859;55.030;-1.550;2022-09-09T03:03:07;99658.26;;;11.42;100.00
46127;BME280;31859;55.030;-1.550;2022-09-09T03:05:35;99661.15;;;11.45;100.00
46127;BME280;31859;55.030;-1.550;2022-09-09T03:08:03;99660.51;;;11.42;100.00
46127;BME280;31859;55.030;-1.550;2022-09-09T03:10:31;99656.99;;;12.41;100.00
46127;BME280;31859;55.030;-1.550;2022-09-09T03:12:59;99636.12;;;13.37;100.00
46127;BME280;31859;55.030;-1.550;2022-09-09T03:15:27;99616.69;;;13.86;100.00
46127;BME280;31859;55.030;-1.550;2022-09-09T03:17:55;99596.96;;;14.47;100.00
46127;BME280;31859;55.030;-1.550;2022-09-09T03:20:22;99573.82;;;14.81;100.00
46127;BME280;31859;55.030;-1.550;2022-09-09T03:22:49;99557.64;;;13.87;100.00
46127;BME280;31859;55.030;-1.550;2022-09-09T03:25:16;99561.28;;;14.14;100.00
46127;BME280;31859;55.030;-1.550;2022-09-09T03:27:43;99560.71;;;13.92;100.00
46127;BME280;31859;55.030;-1.550;2022-09-09T03:30:11;99558.18;;;14.66;100.00
46127;BME280;31859;55.030;-1.550;2022-09-09T03:32:41;99546.55;;;14.77;100.00
46127;BME280;31859;55.030;-1.550;2022-09-09T03:35:08;99551.47;;;14.60;100.00
46127;BME280;31859;55.030;-1.550;2022-09-09T03:37:35;99551.07;;;14.92;100.00
46127;BME280;31859;55.030;-1.550;2022-09-09T03:40:03;99555.46;;;14.41;100.00
46127;BME280;31859;55.030;-1.550;2022-09-09T03:42:30;99564.93;;;13.68;100.00
46127;BME280;31859;55.030;-1.550;2022-09-09T03:44:58;99589.95;;;12.73;100.00
46127;BME280;31859;55.030;-1.550;2022-09-09T03:47:25;99607.09;;;12.78;100.00
46127;BME280;31859;55.030;-1.550;2022-09-09T03:49:52;99612.43;;;12.74;100.00
46127;BME280;31859;55.030;-1.550;2022-09-09T03:52:19;99619.43;;;12.54;100.00
46127;BME280;31859;55.030;-1.550;2022-09-09T03:54:47;99622.66;;;12.50;100.00
46127;BME280;31859;55.030;-1.550;2022-09-09T03:57:19;99630.74;;;12.57;100.00
46127;BME280;31859;55.030;-1.550;2022-09-09T03:59:46;99631.02;;;12.30;100.00
46127;BME280;31859;55.030;-1.550;2022-09-09T04:02:13;99631.13;;;12.24;100.00
46127;BME280;31859;55.030;-1.550;2022-09-09T04:04:40;99640.67;;;12.25;100.00
46127;BME280;31859;55.030;-1.550;2022-09-09T04:07:07;99637.23;;;12.73;100.00
46127;BME280;31859;55.030;-1.550;2022-09-09T04:09:35;99632.03;;;12.80;100.00
46127;BME280;31859;55.030;-1.550;2022-09-09T04:12:03;99628.56;;;13.05;100.00
46127;BME280;31859;55.030;-1.550;2022-09-09T04:14:30;99625.98;;;12.73;100.00
46127;BME280;31859;55.030;-1.550;2022-09-09T04:16:57;99632.19;;;12.23;100.00
46127;BME280;31859;55.030;-1.550;2022-09-09T04:19:24;99635.92;;;12.66;100.00
46127;BME280;31859;55.030;-1.550;2022-09-09T04:21:51;99643.69;;;13.10;100.00
46127;BME280;31859;55.030;-1.550;2022-09-09T04:24:19;99637.26;;;13.05;100.00
46127;BME280;31859;55.030;-1.550;2022-09-09T04:26:46;99636.15;;;12.35;100.00
46127;BME280;31859;55.030;-1.550;2022-09-09T04:29:13;99640.85;;;13.02;100.00
46127;BME280;31859;55.030;-1.550;2022-09-09T04:31:40;99637.28;;;12.77;100.00
46127;BME280;31859;55.030;-1.550;2022-09-09T04:34:08;99640.77;;;12.88;100.00
46127;BME280;31859;55.030;-1.550;2022-09-09T04:36:35;99640.40;;;12.88;100.00
46127;BME280;31859;55.030;-1.550;2022-09-09T04:39:03;99639.34;;;13.40;100.00
46127;BME280;31859;55.030;-1.550;2022-09-09T04:41:30;99644.65;;;12.83;100.00
46127;BME280;31859;55.030;-1.550;2022-09-09T04:43:57;99644.33;;;12.99;100.00
46127;BME280;31859;55.030;-1.550;2022-09-09T04:46:24;99634.34;;;13.38;100.00
46127;BME280;31859;55.030;-1.550;2022-09-09T04:48:52;99629.79;;;13.48;100.00
46127;BME280;31859;55.030;-1.550;2022-09-09T04:51:19;99633.18;;;12.90;100.00
46127;BME280;31859;55.030;-1.550;2022-09-09T04:53:46;99634.45;;;13.09;100.00
46127;BME280;31859;55.030;-1.550;2022-09-09T04:56:15;99634.71;;;13.22;100.00
46127;BME280;31859;55.030;-1.550;2022-09-09T04:58:43;99638.68;;;13.11;100.00
46127;BME280;31859;55.030;-1.550;2022-09-09T05:01:12;99639.55;;;13.61;100.00
46127;BME280;31859;55.030;-1.550;2022-09-09T05:03:40;99639.31;;;13.57;100.00
46127;BME280;31859;55.030;-1.550;2022-09-09T05:06:09;99639.80;;;13.64;100.00
46127;BME280;31859;55.030;-1.550;2022-09-09T05:08:37;99641.69;;;13.53;100.00
46127;BME280;31859;55.030;-1.550;2022-09-09T05:11:14;99633.54;;;13.84;100.00
46127;BME280;31859;55.030;-1.550;2022-09-09T05:13:41;99632.45;;;13.61;100.00
46127;BME280;31859;55.030;-1.550;2022-09-09T05:16:09;99629.09;;;13.90;100.00
46127;BME280;31859;55.030;-1.550;2022-09-09T05:18:37;99619.49;;;13.98;100.00
46127;BME280;31859;55.030;-1.550;2022-09-09T05:21:04;99618.92;;;13.85;100.00
46127;BME280;31859;55.030;-1.550;2022-09-09T05:23:32;99621.97;;;13.75;100.00
46127;BME280;31859;55.030;-1.550;2022-09-09T05:25:59;99625.82;;;13.56;100.00
46127;BME280;31859;55.030;-1.550;2022-09-09T05:28:27;99623.58;;;13.98;100.00
46127;BME280;31859;55.030;-1.550;2022-09-09T05:30:57;99624.24;;;13.86;100.00
46127;BME280;31859;55.030;-1.550;2022-09-09T05:33:24;99636.61;;;13.45;100.00
46127;BME280;31859;55.030;-1.550;2022-09-09T05:35:57;99645.92;;;13.34;100.00
46127;BME280;31859;55.030;-1.550;2022-09-09T05:38:24;99654.66;;;13.14;100.00
46127;BME280;31859;55.030;-1.550;2022-09-09T05:40:51;99659.49;;;12.71;100.00
46127;BME280;31859;55.030;-1.550;2022-09-09T05:43:19;99672.81;;;12.76;100.00
46127;BME280;31859;55.030;-1.550;2022-09-09T05:45:47;99667.73;;;12.86;100.00
46127;BME280;31859;55.030;-1.550;2022-09-09T05:48:15;99668.71;;;12.76;100.00
46127;BME280;31859;55.030;-1.550;2022-09-09T05:50:42;99669.09;;;12.74;100.00
46127;BME280;31859;55.030;-1.550;2022-09-09T05:53:09;99673.93;;;12.89;100.00
46127;BME280;31859;55.030;-1.550;2022-09-09T05:55:36;99677.23;;;12.86;100.00
46127;BME280;31859;55.030;-1.550;2022-09-09T05:58:04;99676.53;;;12.79;100.00
46127;BME280;31859;55.030;-1.550;2022-09-09T06:00:31;99678.57;;;12.91;100.00
46127;BME280;31859;55.030;-1.550;2022-09-09T06:02:59;99681.19;;;13.00;100.00
46127;BME280;31859;55.030;-1.550;2022-09-09T06:05:27;99678.07;;;12.84;100.00
46127;BME280;31859;55.030;-1.550;2022-09-09T06:07:54;99682.75;;;12.81;100.00
46127;BME280;31859;55.030;-1.550;2022-09-09T06:10:22;99683.22;;;13.19;100.00
46127;BME280;31859;55.030;-1.550;2022-09-09T06:12:52;99685.84;;;13.38;100.00
46127;BME280;31859;55.030;-1.550;2022-09-09T06:15:20;99681.07;;;13.10;100.00
46127;BME280;31859;55.030;-1.550;2022-09-09T06:17:54;99683.07;;;12.85;100.00
46127;BME280;31859;55.030;-1.550;2022-09-09T06:20:21;99686.45;;;13.23;100.00
46127;BME280;31859;55.030;-1.550;2022-09-09T06:22:48;99692.23;;;13.01;100.00
46127;BME280;31859;55.030;-1.550;2022-09-09T06:25:16;99688.62;;;13.58;100.00
46127;BME280;31859;55.030;-1.550;2022-09-09T06:27:48;99685.24;;;13.18;100.00
46127;BME280;31859;55.030;-1.550;2022-09-09T06:30:16;99688.13;;;12.80;100.00
46127;BME280;31859;55.030;-1.550;2022-09-09T06:32:44;99692.22;;;13.40;100.00
46127;BME280;31859;55.030;-1.550;2022-09-09T06:35:10;99696.29;;;12.75;100.00
46127;BME280;31859;55.030;-1.550;2022-09-09T06:37:37;99699.78;;;13.11;100.00
46127;BME280;31859;55.030;-1.550;2022-09-09T06:40:05;99707.97;;;12.20;100.00
46127;BME280;31859;55.030;-1.550;2022-09-09T06:42:33;99712.95;;;13.05;100.00
46127;BME280;31859;55.030;-1.550;2022-09-09T06:44:59;99709.23;;;13.15;100.00
46127;BME280;31859;55.030;-1.550;2022-09-09T06:47:28;99703.78;;;13.15;100.00
46127;BME280;31859;55.030;-1.550;2022-09-09T06:49:55;99708.65;;;13.44;100.00
46127;BME280;31859;55.030;-1.550;2022-09-09T06:52:22;99711.57;;;12.93;100.00
46127;BME280;31859;55.030;-1.550;2022-09-09T06:54:50;99711.49;;;12.70;100.00
46127;BME280;31859;55.030;-1.550;2022-09-09T06:57:17;99719.76;;;12.65;100.00
46127;BME280;31859;55.030;-1.550;2022-09-09T06:59:44;99719.39;;;13.11;100.00
46127;BME280;31859;55.030;-1.550;2022-09-09T07:02:11;99720.30;;;12.76;100.00
46127;BME280;31859;55.030;-1.550;2022-09-09T07:04:39;99725.85;;;12.96;100.00
46127;BME280;31859;55.030;-1.550;2022-09-09T07:07:06;99725.51;;;12.93;100.00
46127;BME280;31859;55.030;-1.550;2022-09-09T07:09:34;99729.62;;;13.10;100.00
46127;BME280;31859;55.030;-1.550;2022-09-09T07:12:01;99736.01;;;13.02;100.00
46127;BME280;31859;55.030;-1.550;2022-09-09T07:14:28;99738.04;;;13.17;100.00
46127;BME280;31859;55.030;-1.550;2022-09-09T07:16:56;99733.86;;;13.31;100.00
46127;BME280;31859;55.030;-1.550;2022-09-09T07:19:23;99731.47;;;13.66;100.00
46127;BME280;31859;55.030;-1.550;2022-09-09T07:21:49;99728.33;;;13.34;100.00
46127;BME280;31859;55.030;-1.550;2022-09-09T07:24:16;99728.33;;;13.41;100.00
46127;BME280;31859;55.030;-1.550;2022-09-09T07:26:44;99732.71;;;12.96;100.00
46127;BME280;31859;55.030;-1.550;2022-09-09T07:29:12;99729.76;;;13.43;100.00
46127;BME280;31859;55.030;-1.550;2022-09-09T07:31:39;99728.78;;;13.69;100.00
46127;BME280;31859;55.030;-1.550;2022-09-09T07:34:07;99731.88;;;13.84;100.00
46127;BME280;31859;55.030;-1.550;2022-09-09T07:36:36;99727.45;;;14.38;100.00
46127;BME280;31859;55.030;-1.550;2022-09-09T07:39:05;99721.09;;;14.11;100.00
46127;BME280;31859;55.030;-1.550;2022-09-09T07:41:34;99711.54;;;14.23;100.00
46127;BME280;31859;55.030;-1.550;2022-09-09T07:44:04;99714.16;;;14.49;100.00
46127;BME280;31859;55.030;-1.550;2022-09-09T07:46:32;99708.47;;;14.24;100.00
46127;BME280;31859;55.030;-1.550;2022-09-09T07:49:00;99709.05;;;14.08;100.00
46127;BME280;31859;55.030;-1.550;2022-09-09T07:51:30;99719.02;;;14.15;100.00
46127;BME280;31859;55.030;-1.550;2022-09-09T07:54:00;99724.74;;;14.58;100.00
46127;BME280;31859;55.030;-1.550;2022-09-09T07:56:27;99720.82;;;14.75;100.00
46127;BME280;31859;55.030;-1.550;2022-09-09T07:58:56;99720.14;;;14.68;100.00
46127;BME280;31859;55.030;-1.550;2022-09-09T08:01:27;99722.94;;;14.07;100.00
46127;BME280;31859;55.030;-1.550;2022-09-09T08:03:57;99731.19;;;13.97;100.00
46127;BME280;31859;55.030;-1.550;2022-09-09T08:06:26;99744.98;;;13.68;100.00
46127;BME280;31859;55.030;-1.550;2022-09-09T08:08:53;99749.60;;;13.64;100.00
46127;BME280;31859;55.030;-1.550;2022-09-09T08:11:24;99752.06;;;13.96;100.00
46127;BME280;31859;55.030;-1.550;2022-09-09T08:13:52;99753.23;;;13.87;100.00
46127;BME280;31859;55.030;-1.550;2022-09-09T08:16:21;99748.35;;;14.20;100.00
46127;BME280;31859;55.030;-1.550;2022-09-09T08:18:49;99751.04;;;14.04;100.00
46127;BME280;31859;55.030;-1.550;2022-09-09T08:21:18;99754.00;;;13.62;100.00
46127;BME280;31859;55.030;-1.550;2022-09-09T08:23:46;99757.82;;;14.03;100.00
46127;BME280;31859;55.030;-1.550;2022-09-09T08:26:14;99759.38;;;13.76;100.00
46127;BME280;31859;55.030;-1.550;2022-09-09T08:28:43;99766.06;;;13.82;100.00
46127;BME280;31859;55.030;-1.550;2022-09-09T08:31:12;99755.88;;;14.33;100.00
46127;BME280;31859;55.030;-1.550;2022-09-09T08:33:40;99752.39;;;14.46;100.00
46127;BME280;31859;55.030;-1.550;2022-09-09T08:36:10;99748.59;;;14.52;100.00
46127;BME280;31859;55.030;-1.550;2022-09-09T08:38:38;99740.85;;;14.65;100.00
46127;BME280;31859;55.030;-1.550;2022-09-09T08:41:24;99743.59;;;14.89;100.00
46127;BME280;31859;55.030;-1.550;2022-09-09T08:44:03;99736.95;;;15.09;100.00
46127;BME280;31859;55.030;-1.550;2022-09-09T08:46:41;99732.69;;;14.89;100.00
46127;BME280;31859;55.030;-1.550;2022-09-09T08:49:20;99734.19;;;14.93;100.00
46127;BME280;31859;55.030;-1.550;2022-09-09T08:51:51;99735.10;;;15.30;100.00
46127;BME280;31859;55.030;-1.550;2022-09-09T08:54:22;99731.19;;;14.36;100.00
46127;BME280;31859;55.030;-1.550;2022-09-09T08:56:49;99734.13;;;14.83;100.00
46127;BME280;31859;55.030;-1.550;2022-09-09T08:59:18;99727.24;;;14.93;100.00
46127;BME280;31859;55.030;-1.550;2022-09-09T09:01:54;99720.28;;;15.17;100.00
46127;BME280;31859;55.030;-1.550;2022-09-09T09:04:36;99708.64;;;15.74;100.00
46127;BME280;31859;55.030;-1.550;2022-09-09T09:07:14;99691.32;;;16.63;100.00
46127;BME280;31859;55.030;-1.550;2022-09-09T09:09:52;99682.85;;;15.97;100.00
46127;BME280;31859;55.030;-1.550;2022-09-09T09:12:26;99682.23;;;16.43;100.00
46127;BME280;31859;55.030;-1.550;2022-09-09T09:14:54;99686.14;;;16.30;100.00
46127;BME280;31859;55.030;-1.550;2022-09-09T09:17:24;99701.10;;;15.25;100.00
46127;BME280;31859;55.030;-1.550;2022-09-09T09:19:53;99708.78;;;15.28;100.00
46127;BME280;31859;55.030;-1.550;2022-09-09T09:22:21;99709.99;;;15.59;100.00
46127;BME280;31859;55.030;-1.550;2022-09-09T09:24:52;99728.87;;;15.08;100.00
46127;BME280;31859;55.030;-1.550;2022-09-09T09:27:30;99736.76;;;14.65;100.00
46127;BME280;31859;55.030;-1.550;2022-09-09T09:30:00;99757.20;;;14.23;100.00
46127;BME280;31859;55.030;-1.550;2022-09-09T09:32:30;99774.97;;;14.29;100.00
46127;BME280;31859;55.030;-1.550;2022-09-09T09:35:02;99784.64;;;13.70;100.00
46127;BME280;31859;55.030;-1.550;2022-09-09T09:37:34;99787.89;;;13.88;100.00
46127;BME280;31859;55.030;-1.550;2022-09-09T09:40:10;99790.22;;;13.27;100.00
46127;BME280;31859;55.030;-1.550;2022-09-09T09:42:48;99807.57;;;13.15;100.00
46127;BME280;31859;55.030;-1.550;2022-09-09T09:45:25;99817.44;;;13.23;100.00
46127;BME280;31859;55.030;-1.550;2022-09-09T09:47:59;99822.09;;;12.84;100.00
46127;BME280;31859;55.030;-1.550;2022-09-09T09:50:27;99837.67;;;12.85;100.00
46127;BME280;31859;55.030;-1.550;2022-09-09T09:52:55;99834.17;;;12.74;100.00
46127;BME280;31859;55.030;-1.550;2022-09-09T09:55:23;99838.46;;;12.42;100.00
46127;BME280;31859;55.030;-1.550;2022-09-09T09:57:51;99844.85;;;12.65;100.00
46127;BME280;31859;55.030;-1.550;2022-09-09T10:00:20;99844.95;;;12.62;100.00
46127;BME280;31859;55.030;-1.550;2022-09-09T10:02:49;99850.48;;;12.51;100.00
46127;BME280;31859;55.030;-1.550;2022-09-09T10:05:18;99850.68;;;12.45;100.00
46127;BME280;31859;55.030;-1.550;2022-09-09T10:07:46;99854.03;;;12.73;100.00
46127;BME280;31859;55.030;-1.550;2022-09-09T10:10:19;99852.88;;;12.81;100.00
46127;BME280;31859;55.030;-1.550;2022-09-09T10:12:55;99863.08;;;12.12;100.00
46127;BME280;31859;55.030;-1.550;2022-09-09T10:15:33;99865.27;;;12.58;100.00
46127;BME280;31859;55.030;-1.550;2022-09-09T10:18:18;99875.48;;;12.83;100.00
46127;BME280;31859;55.030;-1.550;2022-09-09T10:20:56;99883.28;;;12.60;100.00
46127;BME280;31859;55.030;-1.550;2022-09-09T10:23:44;99891.47;;;12.13;100.00
46127;BME280;31859;55.030;-1.550;2022-09-09T10:26:27;99894.87;;;12.37;100.00
46127;BME280;31859;55.030;-1.550;2022-09-09T10:29:10;99900.03;;;12.08;100.00
46127;BME280;31859;55.030;-1.550;2022-09-09T10:31:48;99902.84;;;12.18;100.00
46127;BME280;31859;55.030;-1.550;2022-09-09T10:34:47;99902.89;;;12.13;100.00
46127;BME280;31859;55.030;-1.550;2022-09-09T10:37:29;99906.96;;;12.40;100.00
46127;BME280;31859;55.030;-1.550;2022-09-09T10:40:05;99905.60;;;12.12;100.00
46127;BME280;31859;55.030;-1.550;2022-09-09T10:42:42;99920.52;;;11.90;100.00
46127;BME280;31859;55.030;-1.550;2022-09-09T10:45:17;99927.16;;;11.90;100.00
46127;BME280;31859;55.030;-1.550;2022-09-09T10:47:58;99916.08;;;12.39;100.00
46127;BME280;31859;55.030;-1.550;2022-09-09T10:50:42;99921.87;;;11.98;100.00
46127;BME280;31859;55.030;-1.550;2022-09-09T10:53:20;99928.99;;;12.03;100.00
46127;BME280;31859;55.030;-1.550;2022-09-09T10:55:55;99934.96;;;11.88;100.00
46127;BME280;31859;55.030;-1.550;2022-09-09T10:58:30;99939.87;;;12.16;100.00
46127;BME280;31859;55.030;-1.550;2022-09-09T11:01:02;99942.22;;;12.10;100.00
46127;BME280;31859;55.030;-1.550;2022-09-09T11:03:38;99943.92;;;12.05;100.00
46127;BME280;31859;55.030;-1.550;2022-09-09T11:06:11;99940.71;;;11.90;100.00
46127;BME280;31859;55.030;-1.550;2022-09-09T11:08:40;99957.98;;;11.78;100.00
46127;BME280;31859;55.030;-1.550;2022-09-09T11:11:12;99959.36;;;11.83;100.00
46127;BME280;31859;55.030;-1.550;2022-09-09T11:13:47;99961.37;;;11.78;100.00
46127;BME280;31859;55.030;-1.550;2022-09-09T11:16:23;99960.66;;;11.25;100.00
46127;BME280;31859;55.030;-1.550;2022-09-09T11:18:57;99963.58;;;11.32;100.00
46127;BME280;31859;55.030;-1.550;2022-09-09T11:21:29;99974.44;;;11.53;100.00
46127;BME280;31859;55.030;-1.550;2022-09-09T11:24:00;99982.66;;;11.75;100.00
46127;BME280;31859;55.030;-1.550;2022-09-09T11:26:33;99982.90;;;11.41;100.00
46127;BME280;31859;55.030;-1.550;2022-09-09T11:29:20;99988.01;;;11.15;100.00
46127;BME280;31859;55.030;-1.550;2022-09-09T11:32:03;99996.29;;;11.39;100.00
46127;BME280;31859;55.030;-1.550;2022-09-09T11:34:40;99996.39;;;11.48;100.00
46127;BME280;31859;55.030;-1.550;2022-09-09T11:37:21;100003.96;;;11.48;100.00
46127;BME280;31859;55.030;-1.550;2022-09-09T11:40:04;100002.99;;;11.53;100.00
46127;BME280;31859;55.030;-1.550;2022-09-09T11:42:34;100010.56;;;11.53;100.00
46127;BME280;31859;55.030;-1.550;2022-09-09T11:45:10;100012.96;;;11.51;100.00
46127;BME280;31859;55.030;-1.550;2022-09-09T11:47:37;100013.65;;;11.48;100.00
46127;BME280;31859;55.030;-1.550;2022-09-09T11:50:29;100022.98;;;11.52;100.00
46127;BME280;31859;55.030;-1.550;2022-09-09T11:53:22;100026.53;;;11.24;100.00
46127;BME280;31859;55.030;-1.550;2022-09-09T11:56:09;100030.83;;;11.61;100.00
46127;BME280;31859;55.030;-1.550;2022-09-09T11:58:40;100029.45;;;11.09;100.00
46127;BME280;31859;55.030;-1.550;2022-09-09T12:01:25;100034.35;;;11.36;100.00
46127;BME280;31859;55.030;-1.550;2022-09-09T12:04:04;100038.48;;;11.46;100.00
46127;BME280;31859;55.030;-1.550;2022-09-09T12:06:41;100041.20;;;11.38;100.00
46127;BME280;31859;55.030;-1.550;2022-09-09T12:09:18;100040.48;;;11.18;100.00
46127;BME280;31859;55.030;-1.550;2022-09-09T12:11:45;100040.44;;;11.42;100.00
46127;BME280;31859;55.030;-1.550;2022-09-09T12:14:20;100046.22;;;11.48;100.00
46127;BME280;31859;55.030;-1.550;2022-09-09T12:16:48;100051.03;;;11.33;100.00
46127;BME280;31859;55.030;-1.550;2022-09-09T12:19:19;100051.33;;;11.59;100.00
46127;BME280;31859;55.030;-1.550;2022-09-09T12:21:53;100045.44;;;11.23;100.00
46127;BME280;31859;55.030;-1.550;2022-09-09T12:24:29;100041.94;;;11.26;100.00
46127;BME280;31859;55.030;-1.550;2022-09-09T12:27:04;100050.40;;;11.56;100.00
46127;BME280;31859;55.030;-1.550;2022-09-09T12:29:40;100050.37;;;11.47;100.00
46127;BME280;31859;55.030;-1.550;2022-09-09T12:32:14;100061.38;;;11.62;100.00
46127;BME280;31859;55.030;-1.550;2022-09-09T12:34:46;100056.50;;;11.35;100.00
46127;BME280;31859;55.030;-1.550;2022-09-09T12:37:18;100058.06;;;11.70;100.00
46127;BME280;31859;55.030;-1.550;2022-09-09T12:39:53;100070.20;;;11.32;100.00
46127;BME280;31859;55.030;-1.550;2022-09-09T12:42:22;100068.15;;;11.50;100.00
46127;BME280;31859;55.030;-1.550;2022-09-09T12:44:52;100074.55;;;11.04;100.00
46127;BME280;31859;55.030;-1.550;2022-09-09T12:47:23;100079.05;;;11.21;100.00
46127;BME280;31859;55.030;-1.550;2022-09-09T12:49:51;100078.91;;;11.52;100.00
46127;BME280;31859;55.030;-1.550;2022-09-09T12:52:23;100085.72;;;11.05;100.00
46127;BME280;31859;55.030;-1.550;2022-09-09T12:54:53;100088.79;;;11.38;100.00
46127;BME280;31859;55.030;-1.550;2022-09-09T12:57:23;100096.01;;;11.53;100.00
46127;BME280;31859;55.030;-1.550;2022-09-09T12:59:52;100099.52;;;11.67;100.00